Time;durP1;ratioP1;P1;durP2;ratioP2;P2;SDS_P1;SDS_P2;PMS_P1;PMS_P2;Temp;Humidity;BMP_temperature;BMP_pressure;BME280_temperature;BME280_humidity;BME280_pressure;Samples;Min_cycle;Max_cycle;Signal;HPM_P1;HPM_P2
2022/11/28 00:02:12;;;;;;;9.70;6.03;;;9.70;79.40;;;;;;5036843;28;20538;-61
2022/11/28 00:04:38;;;;;;;10.70;5.97;;;9.70;79.40;;;;;;5035454;28;20116;-60
2022/11/28 00:07:04;;;;;;;9.30;5.63;;;9.80;79.40;;;;;;5034671;28;20174;-60
2022/11/28 00:09:29;;;;;;;10.20;5.72;;;9.70;79.30;;;;;;5035740;28;20064;-60
2022/11/28 00:11:55;;;;;;;10.73;5.43;;;9.70;79.30;;;;;;5035817;28;20468;-60
2022/11/28 00:14:21;;;;;;;11.27;5.85;;;9.80;79.30;;;;;;5035078;28;20021;-60
2022/11/28 00:16:47;;;;;;;10.57;5.68;;;9.80;79.30;;;;;;5035803;28;20045;-60
2022/11/28 00:19:13;;;;;;;10.48;5.78;;;9.80;79.40;;;;;;5033687;28;20132;-61
2022/11/28 00:21:40;;;;;;;10.50;6.15;;;9.80;79.40;;;;;;5028229;28;20064;-60
2022/11/28 00:24:07;;;;;;;10.23;5.85;;;9.80;79.30;;;;;;5035374;28;20147;-61
2022/11/28 00:26:35;;;;;;;9.63;5.22;;;9.80;79.40;;;;;;5033673;28;20030;-61
2022/11/28 00:29:01;;;;;;;9.95;5.95;;;9.80;79.40;;;;;;5035256;28;20434;-60
2022/11/28 00:31:31;;;;;;;10.50;5.50;;;9.80;79.30;;;;;;5033216;28;20454;-61
2022/11/28 00:34:00;;;;;;;9.38;5.32;;;9.80;79.30;;;;;;5034381;28;20369;-60
2022/11/28 00:36:26;;;;;;;10.43;5.85;;;9.80;79.30;;;;;;5034658;28;20030;-61
2022/11/28 00:38:52;;;;;;;10.85;5.68;;;9.80;79.30;;;;;;5036006;28;20072;-61
2022/11/28 00:41:24;;;;;;;9.65;4.90;;;9.80;79.90;;;;;;5034146;28;20061;-61
2022/11/28 00:43:50;;;;;;;9.90;5.78;;;9.80;79.20;;;;;;5034558;28;20091;-60
2022/11/28 00:46:17;;;;;;;10.73;5.47;;;9.90;79.30;;;;;;5034994;28;20381;-61
2022/11/28 00:48:43;;;;;;;9.38;5.28;;;9.80;79.20;;;;;;5034300;28;21645;-61
2022/11/28 00:51:10;;;;;;;11.32;5.47;;;9.80;79.30;;;;;;5035155;28;20112;-60
2022/11/28 00:53:36;;;;;;;10.00;5.22;;;9.80;79.30;;;;;;5050354;28;20034;-61
2022/11/28 00:56:06;;;;;;;13.80;5.82;;;9.80;79.30;;;;;;5035628;28;20454;-61
2022/11/28 00:58:33;;;;;;;10.38;4.95;;;9.80;79.90;;;;;;5033357;28;20362;-61
2022/11/28 01:00:58;;;;;;;10.32;5.80;;;9.80;79.30;;;;;;5034972;28;20032;-61
2022/11/28 01:03:24;;;;;;;10.63;5.15;;;9.90;79.40;;;;;;5031840;28;20049;-61
2022/11/28 01:05:50;;;;;;;10.07;5.35;;;9.90;79.50;;;;;;5035013;28;20029;-60
2022/11/28 01:08:16;;;;;;;11.27;5.65;;;9.90;79.40;;;;;;5033840;28;20026;-61
2022/11/28 01:10:43;;;;;;;10.10;5.05;;;9.90;79.40;;;;;;5048817;28;20043;-61
2022/11/28 01:13:10;;;;;;;9.05;5.18;;;9.90;79.40;;;;;;5029689;28;20037;-61
2022/11/28 01:15:38;;;;;;;9.65;5.22;;;9.90;79.40;;;;;;5034040;28;20029;-61
2022/11/28 01:18:04;;;;;;;11.38;6.05;;;9.90;79.40;;;;;;5034565;28;20044;-61
2022/11/28 01:20:29;;;;;;;8.35;5.20;;;9.90;79.40;;;;;;5050283;28;20045;-61
2022/11/28 01:22:55;;;;;;;8.57;4.63;;;9.90;79.40;;;;;;5032838;28;20397;-61
2022/11/28 01:25:21;;;;;;;8.48;4.75;;;9.90;79.40;;;;;;5034732;28;20053;-61
2022/11/28 01:27:47;;;;;;;9.77;5.03;;;9.90;79.30;;;;;;5033159;28;20402;-61
2022/11/28 01:30:13;;;;;;;8.55;4.45;;;9.90;79.30;;;;;;5029086;28;20053;-60
2022/11/28 01:32:38;;;;;;;9.38;5.13;;;9.90;79.30;;;;;;5046201;28;20446;-60
2022/11/28 01:35:04;;;;;;;8.40;4.70;;;10.00;79.40;;;;;;5032915;28;20516;-61
2022/11/28 01:37:30;;;;;;;9.50;5.20;;;10.00;80.10;;;;;;5033912;28;20034;-60
2022/11/28 01:39:56;;;;;;;9.55;4.43;;;10.00;80.10;;;;;;5034304;28;20095;-60
2022/11/28 01:42:22;;;;;;;9.02;4.72;;;10.00;79.50;;;;;;5034404;28;20086;-60
2022/11/28 01:44:47;;;;;;;9.98;5.07;;;10.00;79.50;;;;;;5032979;28;20167;-60
2022/11/28 01:47:22;;;;;;;9.27;4.72;;;10.00;79.50;;;;;;5034653;28;20491;-60
2022/11/28 01:49:49;;;;;;;9.60;4.43;;;10.00;79.60;;;;;;5033280;28;20029;-61
2022/11/28 01:52:18;;;;;;;10.00;4.45;;;10.10;79.60;;;;;;5034410;28;20451;-61
2022/11/28 01:54:47;;;;;;;9.05;4.40;;;10.00;79.60;;;;;;5033943;28;20119;-61
2022/11/28 01:57:21;;;;;;;9.73;4.07;;;10.00;79.60;;;;;;5049485;28;20127;-60
2022/11/28 02:00:14;;;;;;;8.15;4.07;;;10.10;79.70;;;;;;5032993;28;20029;-61
2022/11/28 02:02:47;;;;;;;8.27;4.50;;;10.10;79.60;;;;;;5006577;28;20034;-61
2022/11/28 02:05:14;;;;;;;9.20;4.55;;;10.10;79.70;;;;;;5032628;28;20024;-61
2022/11/28 02:07:41;;;;;;;8.88;5.00;;;10.00;79.70;;;;;;5033736;28;20045;-61
2022/11/28 02:10:09;;;;;;;9.20;4.80;;;10.10;79.80;;;;;;5033180;28;20120;-60
2022/11/28 02:13:03;;;;;;;8.70;4.28;;;10.10;80.40;;;;;;5029670;28;20029;-61
2022/11/28 02:16:08;;;;;;;9.18;4.38;;;10.10;79.80;;;;;;5033600;28;20037;-61
2022/11/28 02:18:40;;;;;;;8.70;4.57;;;10.10;79.80;;;;;;5033497;28;20041;-61
2022/11/28 02:21:32;;;;;;;9.20;4.20;;;10.00;79.80;;;;;;5033077;28;20416;-61
2022/11/28 02:24:16;;;;;;;;;;;10.00;79.80;;;;;;5023998;28;20107;-62
2022/11/28 02:26:52;;;;;;;7.65;3.83;;;10.00;79.80;;;;;;5041685;28;19920;-60
2022/11/28 02:30:00;;;;;;;7.80;3.80;;;10.00;80.00;;;;;;5049493;28;20044;-61
2022/11/28 02:32:38;;;;;;;7.82;4.20;;;10.00;80.30;;;;;;5035589;28;20026;-60
2022/11/28 02:35:07;;;;;;;9.20;4.30;;;10.00;80.50;;;;;;5033978;28;20087;-60
2022/11/28 02:37:43;;;;;;;8.10;4.38;;;10.00;80.70;;;;;;5044855;28;20040;-61
2022/11/28 02:40:17;;;;;;;8.25;4.40;;;10.00;80.90;;;;;;5045807;28;20036;-61
2022/11/28 02:43:13;;;;;;;7.82;4.00;;;9.90;81.10;;;;;;5036112;28;20042;-61
2022/11/28 02:46:15;;;;;;;8.32;4.15;;;10.00;81.30;;;;;;5037959;28;20021;-61
2022/11/28 02:49:04;;;;;;;7.82;4.20;;;10.00;81.40;;;;;;5035359;28;20030;-61
2022/11/28 02:51:47;;;;;;;8.05;4.03;;;10.00;81.50;;;;;;5035625;28;20021;-61
2022/11/28 02:54:16;;;;;;;9.40;4.38;;;9.90;81.50;;;;;;5025356;28;20073;-61
2022/11/28 02:56:50;;;;;;;9.13;4.65;;;9.90;81.70;;;;;;5036454;28;20045;-61
2022/11/28 02:59:37;;;;;;;7.90;4.13;;;9.90;81.80;;;;;;5037331;28;20029;-63
2022/11/28 03:02:27;;;;;;;8.90;4.85;;;9.90;82.00;;;;;;5043914;28;20061;-61
2022/11/28 03:05:38;;;;;;;11.30;4.45;;;10.00;82.00;;;;;;5038645;28;20343;-61
2022/11/28 03:08:32;;;;;;;8.73;4.45;;;9.90;82.10;;;;;;5022288;28;20037;-61
2022/11/28 03:11:18;;;;;;;7.93;4.30;;;9.90;82.80;;;;;;5039498;28;20473;-60
2022/11/28 03:13:56;;;;;;;8.27;4.03;;;9.90;82.30;;;;;;5037993;28;20331;-60
2022/11/28 03:16:24;;;;;;;8.85;4.68;;;9.90;82.30;;;;;;5050749;28;20358;-61
2022/11/28 03:19:51;;;;;;;9.20;5.05;;;9.90;82.40;;;;;;5049691;28;20041;-60
2022/11/28 03:22:32;;;;;;;8.85;4.15;;;9.90;82.40;;;;;;4983550;28;20439;-60
2022/11/28 03:25:22;;;;;;;8.48;3.78;;;9.90;82.40;;;;;;4967332;28;20030;-61
2022/11/28 03:28:18;;;;;;;7.68;3.75;;;9.90;82.40;;;;;;4967623;28;20172;-61
2022/11/28 03:31:09;;;;;;;7.32;4.05;;;9.90;82.40;;;;;;4972224;28;20356;-61
2022/11/28 03:33:36;;;;;;;;;;;9.90;82.50;;;;;;4977562;28;20471;-60
2022/11/28 03:36:07;;;;;;;7.47;3.75;;;9.90;82.50;;;;;;4995860;28;19992;-61
2022/11/28 03:38:37;;;;;;;8.25;3.63;;;9.90;82.50;;;;;;4991183;28;20042;-61
2022/11/28 03:41:13;;;;;;;8.45;4.60;;;9.90;82.60;;;;;;4995167;28;20486;-61
2022/11/28 03:43:45;;;;;;;6.95;3.67;;;9.90;82.70;;;;;;4974493;28;20046;-61
2022/11/28 03:46:15;;;;;;;8.70;4.47;;;9.90;82.80;;;;;;4991689;28;20490;-60
2022/11/28 03:48:50;;;;;;;8.70;4.38;;;10.00;83.50;;;;;;4990922;28;20125;-60
2022/11/28 03:51:25;;;;;;;9.07;4.70;;;10.00;82.90;;;;;;4974458;28;20489;-61
2022/11/28 03:54:12;;;;;;;8.57;4.18;;;10.00;83.00;;;;;;5029483;28;20096;-61
2022/11/28 03:56:51;;;;;;;9.07;4.65;;;10.00;83.00;;;;;;5036516;28;20033;-61
2022/11/28 03:59:35;;;;;;;9.73;5.05;;;10.00;83.00;;;;;;5034584;28;20037;-61
2022/11/28 04:02:19;;;;;;;9.07;5.35;;;10.00;83.00;;;;;;5036419;28;20029;-61
2022/11/28 04:05:17;;;;;;;9.02;5.03;;;10.10;83.10;;;;;;5035784;28;20034;-60
2022/11/28 04:08:06;;;;;;;8.85;5.00;;;10.10;83.10;;;;;;5051307;28;20065;-61
2022/11/28 04:10:36;;;;;;;9.95;5.00;;;10.00;83.20;;;;;;5024117;28;20040;-61
2022/11/28 04:13:08;;;;;;;8.10;4.23;;;10.00;83.20;;;;;;5034642;28;20021;-60
2022/11/28 04:15:51;;;;;;;;;;;10.00;83.20;;;;;;5035493;28;20364;-60
2022/11/28 04:18:43;;;;;;;8.70;4.30;;;10.00;83.10;;;;;;5036049;28;19909;-60
2022/11/28 04:21:24;;;;;;;8.63;4.75;;;10.00;83.20;;;;;;5040153;28;20136;-60
2022/11/28 04:23:52;;;;;;;9.13;4.78;;;10.00;83.30;;;;;;5030047;28;20030;-60
2022/11/28 04:26:30;;;;;;;9.48;5.05;;;10.00;83.30;;;;;;5036520;28;20033;-61
2022/11/28 04:28:59;;;;;;;8.60;4.93;;;10.00;83.50;;;;;;5035683;28;20029;-60
2022/11/28 04:31:25;;;;;;;9.68;5.22;;;10.00;83.50;;;;;;5035252;28;20021;-60
2022/11/28 04:33:56;;;;;;;11.43;5.93;;;10.00;83.50;;;;;;5035973;28;20022;-60
2022/11/28 04:36:24;;;;;;;12.63;4.40;;;10.10;83.70;;;;;;5038329;28;20038;-60
2022/11/28 04:38:55;;;;;;;8.85;5.13;;;10.00;83.60;;;;;;5035431;28;20037;-61
2022/11/28 04:41:33;;;;;;;8.95;5.00;;;10.00;83.60;;;;;;5034536;28;20121;-61
2022/11/28 04:44:04;;;;;;;10.25;5.20;;;10.00;83.70;;;;;;5034261;28;20417;-61
2022/11/28 04:46:39;;;;;;;9.85;5.28;;;10.00;83.70;;;;;;5034391;28;20285;-60
2022/11/28 04:49:05;;;;;;;11.20;5.32;;;10.10;83.70;;;;;;5034037;28;20378;-60
2022/11/28 04:51:59;;;;;;;8.63;4.82;;;10.00;83.70;;;;;;5034097;28;20026;-61
2022/11/28 04:54:51;;;;;;;10.13;5.35;;;10.10;83.70;;;;;;5034740;28;20032;-61
2022/11/28 04:57:25;;;;;;;9.38;5.63;;;10.10;83.70;;;;;;5035707;28;20030;-61
2022/11/28 04:59:52;;;;;;;9.43;5.07;;;10.10;84.40;;;;;;5033765;28;20022;-61
2022/11/28 05:02:19;;;;;;;9.43;5.32;;;10.00;83.70;;;;;;5033847;28;20041;-61
2022/11/28 05:04:44;;;;;;;9.70;5.30;;;10.10;83.80;;;;;;5033498;28;20029;-61
2022/11/28 05:07:10;;;;;;;9.57;4.68;;;10.00;83.80;;;;;;5034956;28;20033;-61
2022/11/28 05:09:36;;;;;;;8.10;4.85;;;10.10;83.80;;;;;;5037658;28;20023;-60
2022/11/28 05:12:02;;;;;;;8.73;4.95;;;10.10;83.90;;;;;;5038328;28;20029;-61
2022/11/28 05:14:27;;;;;;;8.43;5.05;;;10.10;83.90;;;;;;5038469;28;20029;-61
2022/11/28 05:16:53;;;;;;;8.95;4.78;;;10.00;83.90;;;;;;5033656;28;20030;-61
2022/11/28 05:19:19;;;;;;;10.45;5.10;;;10.00;83.90;;;;;;5030797;28;20049;-61
2022/11/28 05:21:44;;;;;;;8.68;5.30;;;10.10;84.00;;;;;;5032555;28;20120;-61
2022/11/28 05:24:10;;;;;;;7.85;4.40;;;10.10;84.00;;;;;;5035043;28;20030;-60
2022/11/28 05:26:37;;;;;;;9.00;4.60;;;10.10;84.00;;;;;;5033401;28;20029;-61
2022/11/28 05:29:03;;;;;;;8.65;4.50;;;10.10;84.00;;;;;;5033962;28;20025;-61
2022/11/28 05:31:29;;;;;;;7.95;4.28;;;10.10;84.00;;;;;;5026337;28;20026;-61
2022/11/28 05:33:55;;;;;;;8.20;4.30;;;10.10;84.00;;;;;;5034320;28;20037;-61
2022/11/28 05:36:21;;;;;;;6.95;3.95;;;10.10;84.10;;;;;;5036224;28;20049;-61
2022/11/28 05:38:47;;;;;;;8.95;4.40;;;10.10;84.10;;;;;;5041758;28;20445;-61
2022/11/28 05:41:24;;;;;;;7.75;4.55;;;10.10;84.20;;;;;;5045810;28;20089;-61
2022/11/28 05:43:50;;;;;;;7.47;3.67;;;10.10;84.20;;;;;;5032056;28;20090;-61
2022/11/28 05:46:16;;;;;;;7.65;3.88;;;10.10;84.20;;;;;;5045337;28;20029;-61
2022/11/28 05:48:42;;;;;;;6.70;3.80;;;10.10;84.30;;;;;;5053576;28;20035;-61
2022/11/28 05:51:08;;;;;;;6.60;3.47;;;10.10;84.30;;;;;;5042652;28;20022;-61
2022/11/28 05:53:34;;;;;;;7.32;3.35;;;10.10;84.30;;;;;;5051500;28;20083;-61
2022/11/28 05:56:23;;;;;;;7.80;3.50;;;10.10;84.40;;;;;;5046636;28;20033;-61
2022/11/28 05:58:49;;;;;;;7.00;3.45;;;10.10;84.40;;;;;;5045233;28;20078;-61
2022/11/28 06:01:17;;;;;;;7.20;4.00;;;10.10;84.40;;;;;;5043583;28;20034;-61
2022/11/28 06:03:44;;;;;;;6.35;3.05;;;10.10;84.50;;;;;;5050048;28;20037;-60
2022/11/28 06:06:16;;;;;;;6.32;3.50;;;10.10;84.50;;;;;;5052266;28;20029;-61
2022/11/28 06:08:41;;;;;;;;;;;10.10;84.60;;;;;;5040910;28;20033;-61
2022/11/28 06:11:08;;;;;;;6.47;2.85;;;10.10;84.50;;;;;;5051182;28;20325;-61
2022/11/28 06:13:34;;;;;;;6.22;3.08;;;10.10;84.50;;;;;;5035202;28;20503;-60
2022/11/28 06:15:59;;;;;;;6.00;3.05;;;10.10;84.50;;;;;;5053292;28;20046;-61
2022/11/28 06:18:25;;;;;;;6.38;3.13;;;10.10;84.60;;;;;;5047872;28;20033;-61
2022/11/28 06:20:50;;;;;;;7.05;3.53;;;10.10;84.60;;;;;;5041093;28;20033;-61
2022/11/28 06:23:16;;;;;;;7.07;3.78;;;10.10;84.60;;;;;;5044253;28;20025;-61
2022/11/28 06:25:42;;;;;;;7.13;3.15;;;10.10;84.70;;;;;;5051106;28;20030;-60
2022/11/28 06:28:07;;;;;;;7.10;3.45;;;10.10;85.30;;;;;;5042654;28;20029;-61
2022/11/28 06:30:33;;;;;;;6.05;3.13;;;10.10;84.70;;;;;;5042063;28;20026;-61
2022/11/28 06:32:59;;;;;;;6.75;3.30;;;10.10;84.70;;;;;;5045726;28;20499;-62
2022/11/28 06:35:24;;;;;;;7.28;3.50;;;10.10;84.60;;;;;;5030853;28;20025;-62
2022/11/28 06:37:50;;;;;;;7.07;3.53;;;10.10;84.60;;;;;;5031173;28;20414;-62
2022/11/28 06:40:16;;;;;;;6.50;3.17;;;10.10;84.60;;;;;;5041972;28;20472;-62
2022/11/28 06:42:41;;;;;;;6.25;2.90;;;10.20;84.70;;;;;;5053252;28;20021;-62
2022/11/28 06:45:08;;;;;;;7.22;3.70;;;10.20;84.70;;;;;;5040477;28;20029;-62
2022/11/28 06:47:34;;;;;;;5.80;2.80;;;10.20;84.70;;;;;;5013455;28;20018;-62
2022/11/28 06:49:59;;;;;;;6.00;2.83;;;10.10;84.70;;;;;;5037633;28;20061;-61
2022/11/28 06:52:25;;;;;;;6.97;3.80;;;10.10;84.70;;;;;;5042866;28;20021;-61
2022/11/28 06:54:51;;;;;;;7.00;3.40;;;10.10;84.70;;;;;;5040910;28;20033;-61
2022/11/28 06:57:16;;;;;;;6.05;3.22;;;10.10;84.70;;;;;;5038535;28;20108;-62
2022/11/28 06:59:42;;;;;;;6.93;3.60;;;10.10;84.70;;;;;;5042764;28;20037;-61
2022/11/28 07:02:09;;;;;;;7.35;3.80;;;10.10;84.80;;;;;;5034442;28;20159;-61
2022/11/28 07:04:35;;;;;;;7.80;3.35;;;10.10;84.80;;;;;;5027726;28;20045;-61
2022/11/28 07:07:01;;;;;;;6.47;3.30;;;10.10;84.80;;;;;;5040564;28;20025;-59
2022/11/28 07:09:26;;;;;;;7.43;3.95;;;10.10;84.80;;;;;;5035725;28;20091;-61
2022/11/28 07:11:52;;;;;;;6.90;3.50;;;10.20;84.90;;;;;;5032770;28;20025;-62
2022/11/28 07:14:18;;;;;;;6.80;3.50;;;10.10;84.80;;;;;;5037621;28;20116;-62
2022/11/28 07:16:43;;;;;;;7.75;3.72;;;10.10;84.80;;;;;;5035093;28;20375;-62
2022/11/28 07:19:11;;;;;;;6.45;3.45;;;10.10;84.90;;;;;;5034611;28;20049;-62
2022/11/28 07:21:37;;;;;;;6.53;3.58;;;10.10;84.90;;;;;;5033753;28;20492;-62
2022/11/28 07:24:02;;;;;;;6.15;3.40;;;10.20;84.90;;;;;;5031612;28;20029;-62
2022/11/28 07:26:28;;;;;;;6.38;3.45;;;10.10;84.90;;;;;;5033446;28;20343;-62
2022/11/28 07:28:57;;;;;;;6.90;3.30;;;10.10;84.90;;;;;;5033458;28;20029;-62
2022/11/28 07:31:30;;;;;;;7.40;3.70;;;10.10;84.90;;;;;;5033405;28;20454;-62
2022/11/28 07:33:56;;;;;;;7.75;4.10;;;10.10;84.90;;;;;;5031893;28;20041;-62
2022/11/28 07:36:24;;;;;;;7.50;3.95;;;10.10;84.90;;;;;;5039635;28;20033;-61
2022/11/28 07:38:58;;;;;;;7.55;3.90;;;10.10;85.00;;;;;;5033210;28;20033;-62
2022/11/28 07:41:25;;;;;;;6.63;3.60;;;10.20;85.00;;;;;;5039971;28;20029;-62
2022/11/28 07:43:54;;;;;;;6.47;3.55;;;10.20;85.00;;;;;;5046041;28;20138;-62
2022/11/28 07:46:21;;;;;;;7.90;3.83;;;10.20;84.90;;;;;;5035901;28;20096;-63
2022/11/28 07:48:47;;;;;;;8.30;3.92;;;10.20;84.90;;;;;;5029240;28;20024;-64
2022/11/28 07:51:16;;;;;;;6.95;4.05;;;10.30;84.90;;;;;;5036693;28;20099;-64
2022/11/28 07:53:42;;;;;;;7.57;4.35;;;10.30;84.80;;;;;;5036476;28;20028;-64
2022/11/28 07:56:17;;;;;;;7.65;4.20;;;10.30;84.70;;;;;;5035446;28;20036;-64
2022/11/28 07:58:45;;;;;;;8.43;5.43;;;10.30;84.70;;;;;;5036218;28;20032;-64
2022/11/28 08:01:16;;;;;;;9.73;6.20;;;10.30;84.70;;;;;;5047013;28;20036;-64
2022/11/28 08:03:43;;;;;;;8.68;5.18;;;10.40;84.70;;;;;;5040891;28;20072;-64
2022/11/28 08:06:09;;;;;;;9.27;4.72;;;10.40;84.70;;;;;;5035575;28;20474;-63
2022/11/28 08:08:36;;;;;;;8.02;4.72;;;10.40;84.70;;;;;;5052149;28;20030;-63
2022/11/28 08:11:05;;;;;;;7.90;4.65;;;10.40;84.60;;;;;;5033948;28;20112;-64
2022/11/28 08:13:31;;;;;;;9.05;4.65;;;10.40;84.60;;;;;;5033855;28;20466;-63
2022/11/28 08:15:57;;;;;;;7.32;4.38;;;10.40;84.60;;;;;;5035297;28;20029;-64
2022/11/28 08:18:23;;;;;;;8.73;4.78;;;10.40;84.70;;;;;;5047467;28;20025;-64
2022/11/28 08:20:49;;;;;;;7.68;4.28;;;10.30;84.70;;;;;;5033002;28;20447;-63
2022/11/28 08:23:14;;;;;;;8.18;4.55;;;10.30;84.70;;;;;;5034464;28;20037;-63
2022/11/28 08:25:40;;;;;;;8.35;4.60;;;10.30;84.80;;;;;;5033400;28;20025;-63
2022/11/28 08:28:06;;;;;;;8.88;4.70;;;10.30;84.80;;;;;;5036224;28;20022;-63
2022/11/28 08:30:32;;;;;;;7.55;4.30;;;10.30;84.80;;;;;;5033664;28;20105;-63
2022/11/28 08:32:58;;;;;;;8.65;4.40;;;10.30;84.80;;;;;;5035138;28;20026;-63
2022/11/28 08:35:23;;;;;;;8.90;4.80;;;10.30;84.80;;;;;;5017876;28;20021;-68
2022/11/28 08:37:49;;;;;;;7.90;4.15;;;10.30;84.80;;;;;;5051186;28;20021;-64
2022/11/28 08:40:15;;;;;;;7.82;4.47;;;10.30;84.70;;;;;;5041112;28;20104;-63
2022/11/28 08:42:40;;;;;;;8.90;5.30;;;10.30;84.70;;;;;;5028993;28;20035;-63
2022/11/28 08:45:07;;;;;;;8.38;4.88;;;10.30;84.80;;;;;;5034821;28;20036;-64
2022/11/28 08:47:32;;;;;;;7.72;4.63;;;10.30;84.80;;;;;;5034094;28;20354;-64
2022/11/28 08:49:58;;;;;;;8.43;5.03;;;10.30;84.80;;;;;;5034554;28;20026;-64
2022/11/28 08:52:24;;;;;;;8.82;5.32;;;10.30;84.80;;;;;;5033492;28;20343;-64
2022/11/28 08:54:50;;;;;;;8.52;4.57;;;10.40;84.90;;;;;;5034460;28;20036;-63
2022/11/28 08:57:16;;;;;;;9.30;5.15;;;10.40;84.90;;;;;;5033527;28;20021;-63
2022/11/28 08:59:42;;;;;;;9.13;5.35;;;10.40;84.90;;;;;;5032394;28;20413;-63
2022/11/28 09:02:11;;;;;;;8.65;5.55;;;10.40;84.90;;;;;;5028692;28;20040;-64
2022/11/28 09:04:37;;;;;;;8.65;4.88;;;10.40;85.00;;;;;;5033871;28;20041;-64
2022/11/28 09:07:02;;;;;;;8.85;4.97;;;10.40;85.00;;;;;;5017424;28;20075;-64
2022/11/28 09:09:28;;;;;;;8.93;5.03;;;10.40;85.00;;;;;;5033875;28;20025;-64
2022/11/28 09:11:54;;;;;;;7.85;5.00;;;10.40;85.00;;;;;;5034356;28;20116;-64
2022/11/28 09:14:20;;;;;;;8.25;5.15;;;10.40;85.00;;;;;;5034191;28;20087;-64
2022/11/28 09:16:46;;;;;;;9.43;5.75;;;10.40;85.00;;;;;;5033572;28;20076;-64
2022/11/28 09:19:12;;;;;;;8.35;5.55;;;10.40;85.00;;;;;;5034233;28;20051;-63
2022/11/28 09:21:37;;;;;;;8.20;5.18;;;10.40;85.00;;;;;;5034949;28;20025;-64
2022/11/28 09:24:04;;;;;;;8.38;4.90;;;10.40;85.00;;;;;;5033719;28;20032;-64
2022/11/28 09:26:29;;;;;;;8.98;5.60;;;10.40;85.00;;;;;;5032567;28;20071;-64
2022/11/28 09:28:55;;;;;;;9.35;5.43;;;10.40;85.00;;;;;;5039467;28;20061;-64
2022/11/28 09:31:22;;;;;;;9.07;5.20;;;10.40;85.00;;;;;;5033539;28;20018;-65
2022/11/28 09:33:49;;;;;;;9.38;5.00;;;10.40;85.10;;;;;;5033359;28;20036;-63
2022/11/28 09:36:17;;;;;;;8.35;4.75;;;10.40;85.10;;;;;;5024625;28;20419;-63
2022/11/28 09:38:44;;;;;;;8.52;5.20;;;10.40;85.10;;;;;;5016740;28;20454;-65
2022/11/28 09:41:31;;;;;;;8.73;5.03;;;10.50;85.20;;;;;;5033849;28;20358;-63
2022/11/28 09:44:08;;;;;;;8.50;5.22;;;10.50;85.20;;;;;;5034184;28;20408;-64
2022/11/28 09:46:37;;;;;;;8.88;4.85;;;10.50;85.20;;;;;;5045247;28;20083;-65
2022/11/28 09:49:16;;;;;;;8.13;4.47;;;10.50;85.20;;;;;;5029621;28;20103;-64
2022/11/28 09:51:53;;;;;;;9.10;5.50;;;10.50;85.20;;;;;;5033926;28;20047;-63
2022/11/28 09:55:04;;;;;;;8.65;5.03;;;10.50;85.20;;;;;;5042258;28;20446;-63
2022/11/28 09:57:46;;;;;;;8.43;4.55;;;10.50;85.20;;;;;;4983118;28;20371;-63
2022/11/28 10:00:17;;;;;;;8.43;4.75;;;10.50;85.10;;;;;;4952806;28;20368;-64
2022/11/28 10:03:08;;;;;;;8.15;4.65;;;10.60;85.20;;;;;;4979221;28;20041;-64
2022/11/28 10:05:58;;;;;;;8.52;5.32;;;10.60;85.20;;;;;;4964615;28;20038;-64
2022/11/28 10:08:35;;;;;;;9.00;4.95;;;10.50;85.10;;;;;;4976360;28;20076;-64
2022/11/28 10:11:10;;;;;;;8.27;5.28;;;10.60;85.20;;;;;;4972731;28;20070;-63
2022/11/28 10:13:44;;;;;;;8.30;4.85;;;10.60;85.20;;;;;;4957921;28;20431;-64
2022/11/28 10:16:10;;;;;;;8.77;4.75;;;10.60;85.10;;;;;;4973501;28;20092;-64
2022/11/28 10:18:55;;;;;;;12.10;7.90;;;10.60;85.20;;;;;;4974328;28;20042;-64
2022/11/28 10:21:35;;;;;;;11.68;7.38;;;10.60;85.20;;;;;;4991311;28;20038;-64
2022/11/28 10:24:09;;;;;;;12.65;7.38;;;10.60;85.20;;;;;;4976822;28;20443;-64
2022/11/28 10:26:38;;;;;;;9.98;5.75;;;10.60;85.20;;;;;;4993356;28;20463;-64
2022/11/28 10:29:21;;;;;;;10.07;5.90;;;10.50;85.20;;;;;;4976849;28;20143;-64
2022/11/28 10:31:49;;;;;;;12.50;5.72;;;10.60;85.20;;;;;;5011739;28;20514;-64
2022/11/28 10:34:34;;;;;;;9.32;5.15;;;10.60;85.20;;;;;;5033401;28;20063;-64
2022/11/28 10:37:09;;;;;;;8.75;5.05;;;10.60;85.30;;;;;;5048543;28;20070;-64
2022/11/28 10:39:37;;;;;;;7.68;4.50;;;10.60;85.30;;;;;;5054112;28;20147;-64
2022/11/28 10:42:14;;;;;;;8.50;5.18;;;10.60;85.30;;;;;;5054184;28;20350;-64
2022/11/28 10:44:45;;;;;;;8.07;4.88;;;10.60;85.30;;;;;;5041249;28;20098;-64
2022/11/28 10:47:46;;;;;;;7.88;4.50;;;10.60;85.30;;;;;;5049859;28;20025;-64
2022/11/28 10:50:23;;;;;;;8.40;4.30;;;10.60;85.20;;;;;;5032017;28;20121;-64
2022/11/28 10:53:01;;;;;;;8.07;4.43;;;10.60;85.30;;;;;;5038900;28;20112;-64
2022/11/28 10:56:04;;;;;;;8.27;4.75;;;10.60;85.30;;;;;;5032984;28;20433;-64
2022/11/28 10:58:40;;;;;;;7.97;4.70;;;10.60;85.30;;;;;;5033117;28;20045;-64
2022/11/28 11:01:06;;;;;;;8.25;4.88;;;10.60;85.30;;;;;;5033359;28;20029;-64
2022/11/28 11:03:34;;;;;;;8.73;5.20;;;10.60;85.20;;;;;;5033477;28;20059;-64
2022/11/28 11:06:01;;;;;;;8.77;5.05;;;10.60;85.30;;;;;;5032461;28;20096;-64
2022/11/28 11:08:29;;;;;;;10.18;4.82;;;10.70;85.30;;;;;;5032016;28;20425;-64
2022/11/28 11:11:22;;;;;;;9.98;6.13;;;10.60;85.30;;;;;;5029655;28;20032;-64
2022/11/28 11:13:59;;;;;;;8.82;5.43;;;10.70;85.40;;;;;;5037215;28;20335;-64
2022/11/28 11:16:25;;;;;;;10.20;5.80;;;10.70;85.30;;;;;;5034610;28;20029;-63
2022/11/28 11:18:54;;;;;;;9.20;5.28;;;10.70;85.30;;;;;;5046226;28;20351;-64
2022/11/28 11:21:22;;;;;;;9.63;6.07;;;10.70;85.30;;;;;;5033522;28;20053;-64
2022/11/28 11:24:08;;;;;;;9.80;5.30;;;10.70;85.40;;;;;;5035853;28;20057;-65
2022/11/28 11:26:39;;;;;;;10.07;5.63;;;10.70;85.30;;;;;;5035933;28;20064;-65
2022/11/28 11:29:05;;;;;;;9.65;6.10;;;10.70;85.30;;;;;;5049048;28;20087;-64
2022/11/28 11:31:41;;;;;;;12.70;6.20;;;10.70;85.30;;;;;;5050003;28;20373;-64
2022/11/28 11:34:16;;;;;;;10.23;6.15;;;10.80;85.30;;;;;;5029607;28;20041;-64
2022/11/28 11:36:42;;;;;;;11.45;5.57;;;10.80;85.30;;;;;;5035088;28;20033;-64
2022/11/28 11:39:11;;;;;;;10.18;6.40;;;10.80;85.30;;;;;;5019681;28;20382;-64
2022/11/28 11:41:48;;;;;;;11.52;6.75;;;10.80;85.40;;;;;;5034982;28;20033;-64
2022/11/28 11:44:13;;;;;;;11.05;6.90;;;10.80;85.40;;;;;;5034344;28;20034;-65
2022/11/28 11:46:53;;;;;;;11.10;6.38;;;10.90;85.40;;;;;;5033114;28;20074;-65
2022/11/28 11:49:46;;;;;;;11.48;6.30;;;10.90;85.40;;;;;;5035369;28;20473;-65
2022/11/28 11:52:12;;;;;;;10.85;6.68;;;10.90;85.40;;;;;;5043750;28;20040;-65
2022/11/28 11:54:56;;;;;;;11.13;6.55;;;10.90;85.40;;;;;;5031958;28;20112;-65
2022/11/28 11:57:24;;;;;;;12.13;6.78;;;10.90;85.50;;;;;;5040035;28;20115;-65
2022/11/28 12:00:15;;;;;;;10.30;6.05;;;10.90;85.50;;;;;;5036682;28;20044;-65
2022/11/28 12:02:50;;;;;;;10.40;5.63;;;10.90;85.50;;;;;;5031368;28;20037;-65
2022/11/28 12:05:27;;;;;;;12.55;6.80;;;10.90;85.50;;;;;;5029905;28;20292;-64
2022/11/28 12:08:18;;;;;;;11.45;6.78;;;10.90;85.50;;;;;;5051157;28;20084;-64
2022/11/28 12:11:16;;;;;;;10.60;6.65;;;10.90;85.50;;;;;;5034611;28;20343;-65
2022/11/28 12:13:42;;;;;;;11.98;7.10;;;10.90;85.50;;;;;;5033503;28;20075;-65
2022/11/28 12:16:23;;;;;;;12.95;7.90;;;10.90;85.50;;;;;;5025470;28;20394;-64
2022/11/28 12:19:18;;;;;;;12.13;7.10;;;10.90;85.60;;;;;;5033262;28;20526;-64
2022/11/28 12:22:20;;;;;;;12.70;7.30;;;10.90;85.60;;;;;;5014493;28;20488;-65
2022/11/28 12:24:58;;;;;;;13.40;7.50;;;10.90;85.60;;;;;;5014345;28;20057;-65
2022/11/28 12:27:50;;;;;;;11.55;6.80;;;10.90;85.60;;;;;;5030994;28;20060;-64
2022/11/28 12:30:15;;;;;;;;;;;10.90;85.60;;;;;;5007743;28;20124;-64
2022/11/28 12:32:57;;;;;;;11.75;7.00;;;10.90;85.50;;;;;;5033813;28;20369;-65
2022/11/28 12:35:42;;;;;;;11.95;6.65;;;10.90;85.60;;;;;;5033668;28;20060;-66
2022/11/28 12:38:38;;;;;;;12.02;7.47;;;10.90;85.50;;;;;;5029796;28;20025;-67
2022/11/28 12:41:16;;;;;;;15.52;7.18;;;10.90;85.60;;;;;;5025860;28;20194;-64
2022/11/28 12:44:21;;;;;;;13.15;7.65;;;10.90;85.60;;;;;;5035117;28;20034;-65
2022/11/28 12:47:09;;;;;;;11.75;7.40;;;10.90;85.70;;;;;;5031702;28;20435;-65
2022/11/28 12:50:13;;;;;;;12.75;7.72;;;10.90;86.30;;;;;;5044105;28;20078;-65
2022/11/28 12:53:06;;;;;;;12.45;8.23;;;11.00;85.70;;;;;;5031525;28;20052;-65
2022/11/28 12:55:47;;;;;;;14.68;7.85;;;11.00;85.70;;;;;;5034046;28;20029;-65
2022/11/28 12:58:20;;;;;;;13.57;9.10;;;11.00;85.60;;;;;;5049707;28;20517;-64
2022/11/28 13:00:55;;;;;;;21.08;9.98;;;11.00;85.70;;;;;;5040389;28;20087;-64
2022/11/28 13:03:49;;;;;;;23.50;10.65;;;11.00;85.70;;;;;;5034655;28;20116;-65
2022/11/28 13:06:36;;;;;;;23.58;9.57;;;11.00;85.70;;;;;;5023189;28;20603;-65
2022/11/28 13:09:15;;;;;;;20.17;9.82;;;11.00;85.70;;;;;;5016502;28;20025;-65
2022/11/28 13:11:50;;;;;;;18.52;8.73;;;11.00;86.40;;;;;;5028986;28;20033;-65
2022/11/28 13:14:35;;;;;;;14.88;8.80;;;11.00;85.70;;;;;;5035677;28;20099;-65
2022/11/28 13:17:15;;;;;;;15.25;9.02;;;11.00;85.70;;;;;;5033949;28;20108;-65
2022/11/28 13:20:04;;;;;;;13.50;8.38;;;11.00;85.70;;;;;;5011744;28;20057;-65